sensor_id;sensor_type;location;lat;lon;timestamp;pressure;altitude;pressure_sealevel;temperature;humidity
70027;BME280;57506;50.092;15.804;2023-04-24T00:00:33;97868.00;;;11.79;100.00
70027;BME280;57506;50.092;15.804;2023-04-24T00:02:58;97875.75;;;11.87;100.00
70027;BME280;57506;50.092;15.804;2023-04-24T00:05:24;97889.72;;;11.84;100.00
70027;BME280;57506;50.092;15.804;2023-04-24T00:07:50;97889.81;;;11.77;100.00
70027;BME280;57506;50.092;15.804;2023-04-24T00:10:19;97867.75;;;11.69;100.00
70027;BME280;57506;50.092;15.804;2023-04-24T00:12:45;97890.88;;;11.76;100.00
70027;BME280;57506;50.092;15.804;2023-04-24T00:15:11;97886.44;;;11.82;100.00
70027;BME280;57506;50.092;15.804;2023-04-24T00:17:36;97882.97;;;11.75;100.00
70027;BME280;57506;50.092;15.804;2023-04-24T00:20:03;97877.88;;;11.85;100.00
70027;BME280;57506;50.092;15.804;2023-04-24T00:22:30;97894.75;;;11.92;100.00
70027;BME280;57506;50.092;15.804;2023-04-24T00:24:56;97893.72;;;11.93;100.00
70027;BME280;57506;50.092;15.804;2023-04-24T00:27:21;97880.22;;;11.81;100.00
70027;BME280;57506;50.092;15.804;2023-04-24T00:29:47;97887.72;;;11.91;100.00
70027;BME280;57506;50.092;15.804;2023-04-24T00:32:13;97899.34;;;11.80;100.00
70027;BME280;57506;50.092;15.804;2023-04-24T00:34:39;97897.75;;;11.72;100.00
70027;BME280;57506;50.092;15.804;2023-04-24T00:37:04;97902.22;;;11.67;100.00
70027;BME280;57506;50.092;15.804;2023-04-24T00:39:30;97884.47;;;11.47;100.00
70027;BME280;57506;50.092;15.804;2023-04-24T00:41:56;97875.94;;;11.50;100.00
70027;BME280;57506;50.092;15.804;2023-04-24T00:44:22;97880.84;;;11.53;100.00
70027;BME280;57506;50.092;15.804;2023-04-24T00:46:48;97875.28;;;11.37;100.00
70027;BME280;57506;50.092;15.804;2023-04-24T00:49:18;97873.16;;;11.27;100.00
70027;BME280;57506;50.092;15.804;2023-04-24T00:51:44;97892.63;;;11.29;100.00
70027;BME280;57506;50.092;15.804;2023-04-24T00:54:11;97877.13;;;11.25;100.00
70027;BME280;57506;50.092;15.804;2023-04-24T00:56:37;97887.91;;;11.25;100.00
70027;BME280;57506;50.092;15.804;2023-04-24T00:59:03;97855.41;;;11.08;100.00
70027;BME280;57506;50.092;15.804;2023-04-24T01:01:29;97872.44;;;11.20;100.00
70027;BME280;57506;50.092;15.804;2023-04-24T01:03:56;97873.34;;;11.14;100.00
70027;BME280;57506;50.092;15.804;2023-04-24T01:06:23;97863.63;;;11.13;100.00
70027;BME280;57506;50.092;15.804;2023-04-24T01:08:52;97858.53;;;11.05;100.00
70027;BME280;57506;50.092;15.804;2023-04-24T01:11:17;97855.72;;;11.00;100.00
70027;BME280;57506;50.092;15.804;2023-04-24T01:13:43;97847.41;;;11.01;100.00
70027;BME280;57506;50.092;15.804;2023-04-24T01:16:10;97844.81;;;10.95;100.00
70027;BME280;57506;50.092;15.804;2023-04-24T01:18:35;97833.44;;;10.93;100.00
70027;BME280;57506;50.092;15.804;2023-04-24T01:21:04;97826.06;;;11.00;100.00
70027;BME280;57506;50.092;15.804;2023-04-24T01:23:29;97822.34;;;11.01;100.00
70027;BME280;57506;50.092;15.804;2023-04-24T01:25:55;97857.38;;;11.01;100.00
70027;BME280;57506;50.092;15.804;2023-04-24T01:28:21;97852.69;;;11.08;100.00
70027;BME280;57506;50.092;15.804;2023-04-24T01:30:47;97837.72;;;11.12;100.00
70027;BME280;57506;50.092;15.804;2023-04-24T01:33:12;97837.97;;;11.22;100.00
70027;BME280;57506;50.092;15.804;2023-04-24T01:35:38;97863.28;;;11.21;100.00
70027;BME280;57506;50.092;15.804;2023-04-24T01:38:04;97892.19;;;11.32;100.00
70027;BME280;57506;50.092;15.804;2023-04-24T01:40:31;97920.00;;;11.44;100.00
70027;BME280;57506;50.092;15.804;2023-04-24T01:42:57;97910.50;;;11.42;100.00
70027;BME280;57506;50.092;15.804;2023-04-24T01:45:23;97906.97;;;11.41;100.00
70027;BME280;57506;50.092;15.804;2023-04-24T01:47:49;97908.72;;;11.36;100.00
70027;BME280;57506;50.092;15.804;2023-04-24T01:50:14;97903.41;;;11.29;100.00
70027;BME280;57506;50.092;15.804;2023-04-24T01:52:40;97898.84;;;11.30;100.00
70027;BME280;57506;50.092;15.804;2023-04-24T01:55:06;97912.72;;;11.33;100.00
70027;BME280;57506;50.092;15.804;2023-04-24T01:57:33;97894.72;;;11.27;100.00
70027;BME280;57506;50.092;15.804;2023-04-24T01:59:58;97868.22;;;11.24;100.00
70027;BME280;57506;50.092;15.804;2023-04-24T02:02:24;97874.50;;;11.36;100.00
70027;BME280;57506;50.092;15.804;2023-04-24T02:04:55;97867.91;;;11.32;100.00
70027;BME280;57506;50.092;15.804;2023-04-24T02:07:20;97864.63;;;11.30;100.00
70027;BME280;57506;50.092;15.804;2023-04-24T02:09:46;97855.94;;;11.28;100.00
70027;BME280;57506;50.092;15.804;2023-04-24T02:12:11;97838.56;;;11.24;100.00
70027;BME280;57506;50.092;15.804;2023-04-24T02:14:37;97846.78;;;11.29;100.00
70027;BME280;57506;50.092;15.804;2023-04-24T02:17:03;97851.50;;;11.34;100.00
70027;BME280;57506;50.092;15.804;2023-04-24T02:19:28;97862.16;;;11.40;100.00
70027;BME280;57506;50.092;15.804;2023-04-24T02:21:54;97872.25;;;11.45;100.00
70027;BME280;57506;50.092;15.804;2023-04-24T02:24:19;97850.22;;;11.36;100.00
70027;BME280;57506;50.092;15.804;2023-04-24T02:26:45;97850.31;;;11.41;100.00
70027;BME280;57506;50.092;15.804;2023-04-24T02:29:10;97840.47;;;11.35;100.00
70027;BME280;57506;50.092;15.804;2023-04-24T02:31:36;97860.88;;;11.43;100.00
70027;BME280;57506;50.092;15.804;2023-04-24T02:34:01;97870.03;;;11.42;100.00
70027;BME280;57506;50.092;15.804;2023-04-24T02:36:27;97865.00;;;11.45;100.00
70027;BME280;57506;50.092;15.804;2023-04-24T02:38:52;97865.97;;;11.51;100.00
70027;BME280;57506;50.092;15.804;2023-04-24T02:41:18;97870.16;;;11.47;100.00
70027;BME280;57506;50.092;15.804;2023-04-24T02:43:44;97857.22;;;11.37;100.00
70027;BME280;57506;50.092;15.804;2023-04-24T02:46:10;97864.84;;;11.40;100.00
70027;BME280;57506;50.092;15.804;2023-04-24T02:48:35;97850.44;;;11.35;100.00
70027;BME280;57506;50.092;15.804;2023-04-24T02:51:01;97854.53;;;11.37;100.00
70027;BME280;57506;50.092;15.804;2023-04-24T02:53:26;97859.69;;;11.39;100.00
70027;BME280;57506;50.092;15.804;2023-04-24T02:55:52;97867.56;;;11.40;100.00
70027;BME280;57506;50.092;15.804;2023-04-24T02:58:17;97865.00;;;11.45;100.00
70027;BME280;57506;50.092;15.804;2023-04-24T03:00:45;97858.41;;;11.41;100.00
70027;BME280;57506;50.092;15.804;2023-04-24T03:03:11;97854.66;;;11.42;100.00
70027;BME280;57506;50.092;15.804;2023-04-24T03:05:37;97845.38;;;11.38;100.00
70027;BME280;57506;50.092;15.804;2023-04-24T03:08:02;97846.81;;;11.41;100.00
70027;BME280;57506;50.092;15.804;2023-04-24T03:10:28;97842.22;;;11.41;100.00
70027;BME280;57506;50.092;15.804;2023-04-24T03:12:54;97848.56;;;11.35;100.00
70027;BME280;57506;50.092;15.804;2023-04-24T03:15:20;97853.03;;;11.41;100.00
70027;BME280;57506;50.092;15.804;2023-04-24T03:17:45;97843.41;;;11.34;100.00
70027;BME280;57506;50.092;15.804;2023-04-24T03:20:11;97842.00;;;11.31;100.00
70027;BME280;57506;50.092;15.804;2023-04-24T03:22:37;97837.66;;;11.30;100.00
70027;BME280;57506;50.092;15.804;2023-04-24T03:25:02;97821.78;;;11.22;100.00
70027;BME280;57506;50.092;15.804;2023-04-24T03:27:28;97823.31;;;11.18;100.00
70027;BME280;57506;50.092;15.804;2023-04-24T03:29:54;97834.50;;;11.33;100.00
70027;BME280;57506;50.092;15.804;2023-04-24T03:32:23;97837.50;;;11.25;100.00
70027;BME280;57506;50.092;15.804;2023-04-24T03:34:50;97839.00;;;11.21;100.00
70027;BME280;57506;50.092;15.804;2023-04-24T03:37:16;97825.53;;;11.21;100.00
70027;BME280;57506;50.092;15.804;2023-04-24T03:39:42;97823.44;;;11.23;100.00
70027;BME280;57506;50.092;15.804;2023-04-24T03:42:07;97811.34;;;11.14;100.00
70027;BME280;57506;50.092;15.804;2023-04-24T03:44:34;97835.84;;;11.24;100.00
70027;BME280;57506;50.092;15.804;2023-04-24T03:46:59;97837.84;;;11.17;100.00
70027;BME280;57506;50.092;15.804;2023-04-24T03:49:25;97845.56;;;11.13;100.00
70027;BME280;57506;50.092;15.804;2023-04-24T03:51:51;97863.19;;;11.28;100.00
70027;BME280;57506;50.092;15.804;2023-04-24T03:54:18;97848.75;;;11.22;100.00
70027;BME280;57506;50.092;15.804;2023-04-24T03:56:43;97874.22;;;11.38;100.00
70027;BME280;57506;50.092;15.804;2023-04-24T03:59:09;97865.31;;;11.37;100.00
70027;BME280;57506;50.092;15.804;2023-04-24T04:01:34;97856.16;;;11.27;100.00
70027;BME280;57506;50.092;15.804;2023-04-24T04:04:03;97894.22;;;11.48;100.00
70027;BME280;57506;50.092;15.804;2023-04-24T04:06:28;97899.00;;;11.46;100.00
70027;BME280;57506;50.092;15.804;2023-04-24T04:08:56;97899.38;;;11.50;100.00
70027;BME280;57506;50.092;15.804;2023-04-24T04:11:21;97896.31;;;11.46;100.00
70027;BME280;57506;50.092;15.804;2023-04-24T04:13:47;97890.19;;;11.39;100.00
70027;BME280;57506;50.092;15.804;2023-04-24T04:16:13;97916.38;;;11.50;100.00
70027;BME280;57506;50.092;15.804;2023-04-24T04:18:39;97921.91;;;11.55;100.00
70027;BME280;57506;50.092;15.804;2023-04-24T04:21:04;97925.41;;;11.56;100.00
70027;BME280;57506;50.092;15.804;2023-04-24T04:23:30;97921.44;;;11.58;100.00
70027;BME280;57506;50.092;15.804;2023-04-24T04:25:57;97917.56;;;11.54;100.00
70027;BME280;57506;50.092;15.804;2023-04-24T04:28:23;97922.38;;;11.52;100.00
70027;BME280;57506;50.092;15.804;2023-04-24T04:30:50;97906.75;;;11.43;100.00
70027;BME280;57506;50.092;15.804;2023-04-24T04:33:19;97927.53;;;11.54;100.00
70027;BME280;57506;50.092;15.804;2023-04-24T04:35:45;97913.56;;;11.45;100.00
70027;BME280;57506;50.092;15.804;2023-04-24T04:38:14;97921.19;;;11.48;100.00
70027;BME280;57506;50.092;15.804;2023-04-24T04:40:40;97923.16;;;11.41;100.00
70027;BME280;57506;50.092;15.804;2023-04-24T04:43:05;97918.94;;;11.45;100.00
70027;BME280;57506;50.092;15.804;2023-04-24T04:45:31;97927.88;;;11.57;100.00
70027;BME280;57506;50.092;15.804;2023-04-24T04:47:58;97923.53;;;11.56;100.00
70027;BME280;57506;50.092;15.804;2023-04-24T04:50:26;97920.25;;;11.54;100.00
70027;BME280;57506;50.092;15.804;2023-04-24T04:52:52;97910.19;;;11.50;100.00
70027;BME280;57506;50.092;15.804;2023-04-24T04:55:18;97919.78;;;11.57;100.00
70027;BME280;57506;50.092;15.804;2023-04-24T04:57:48;97919.09;;;11.62;100.00
70027;BME280;57506;50.092;15.804;2023-04-24T05:00:14;97911.94;;;11.56;100.00
70027;BME280;57506;50.092;15.804;2023-04-24T05:02:40;97933.25;;;11.76;100.00
70027;BME280;57506;50.092;15.804;2023-04-24T05:05:06;97943.88;;;11.71;100.00
70027;BME280;57506;50.092;15.804;2023-04-24T05:07:32;97936.13;;;11.74;100.00
70027;BME280;57506;50.092;15.804;2023-04-24T05:09:58;97926.41;;;11.73;100.00
70027;BME280;57506;50.092;15.804;2023-04-24T05:12:24;97920.94;;;11.80;100.00
70027;BME280;57506;50.092;15.804;2023-04-24T05:14:49;97928.69;;;11.88;100.00
70027;BME280;57506;50.092;15.804;2023-04-24T05:17:15;97943.97;;;12.06;100.00
70027;BME280;57506;50.092;15.804;2023-04-24T05:19:41;97947.47;;;12.06;100.00
70027;BME280;57506;50.092;15.804;2023-04-24T05:22:08;97932.22;;;12.00;100.00
70027;BME280;57506;50.092;15.804;2023-04-24T05:24:35;97954.78;;;12.17;100.00
70027;BME280;57506;50.092;15.804;2023-04-24T05:27:01;97965.00;;;12.15;100.00
70027;BME280;57506;50.092;15.804;2023-04-24T05:29:27;97954.41;;;12.02;100.00
70027;BME280;57506;50.092;15.804;2023-04-24T05:31:56;97961.81;;;12.18;100.00
70027;BME280;57506;50.092;15.804;2023-04-24T05:34:21;97967.56;;;12.10;100.00
70027;BME280;57506;50.092;15.804;2023-04-24T05:36:47;97955.00;;;12.04;100.00
70027;BME280;57506;50.092;15.804;2023-04-24T05:39:13;97951.50;;;12.15;100.00
70027;BME280;57506;50.092;15.804;2023-04-24T05:41:39;97941.63;;;12.09;100.00
70027;BME280;57506;50.092;15.804;2023-04-24T05:44:04;97937.38;;;12.02;100.00
70027;BME280;57506;50.092;15.804;2023-04-24T05:46:30;97958.78;;;12.15;100.00
70027;BME280;57506;50.092;15.804;2023-04-24T05:48:55;97944.19;;;12.04;100.00
70027;BME280;57506;50.092;15.804;2023-04-24T05:51:21;97948.75;;;12.04;100.00
70027;BME280;57506;50.092;15.804;2023-04-24T05:53:46;97932.56;;;12.04;100.00
70027;BME280;57506;50.092;15.804;2023-04-24T05:56:12;97931.19;;;12.13;100.00
70027;BME280;57506;50.092;15.804;2023-04-24T05:58:37;97957.00;;;12.20;100.00
70027;BME280;57506;50.092;15.804;2023-04-24T06:01:03;97950.78;;;12.20;100.00
70027;BME280;57506;50.092;15.804;2023-04-24T06:03:29;97959.38;;;12.17;100.00
70027;BME280;57506;50.092;15.804;2023-04-24T06:05:54;97954.78;;;12.17;100.00
70027;BME280;57506;50.092;15.804;2023-04-24T06:08:20;97945.72;;;12.00;100.00
70027;BME280;57506;50.092;15.804;2023-04-24T06:10:45;97935.41;;;11.97;100.00
70027;BME280;57506;50.092;15.804;2023-04-24T06:13:11;97952.88;;;12.06;100.00
70027;BME280;57506;50.092;15.804;2023-04-24T06:15:37;97949.03;;;12.14;100.00
70027;BME280;57506;50.092;15.804;2023-04-24T06:18:03;97950.91;;;12.13;100.00
70027;BME280;57506;50.092;15.804;2023-04-24T06:20:29;97945.97;;;12.22;100.00
70027;BME280;57506;50.092;15.804;2023-04-24T06:22:54;97951.50;;;12.27;100.00
70027;BME280;57506;50.092;15.804;2023-04-24T06:25:20;97921.53;;;12.05;100.00
70027;BME280;57506;50.092;15.804;2023-04-24T06:27:46;97921.16;;;12.02;100.00
70027;BME280;57506;50.092;15.804;2023-04-24T06:30:12;97950.91;;;12.25;100.00
70027;BME280;57506;50.092;15.804;2023-04-24T06:32:37;97931.19;;;12.13;100.00
70027;BME280;57506;50.092;15.804;2023-04-24T06:35:04;97935.75;;;12.12;100.00
70027;BME280;57506;50.092;15.804;2023-04-24T06:37:29;97941.63;;;12.21;100.00
70027;BME280;57506;50.092;15.804;2023-04-24T06:39:55;97943.03;;;12.23;100.00
70027;BME280;57506;50.092;15.804;2023-04-24T06:42:20;97925.63;;;12.19;100.00
70027;BME280;57506;50.092;15.804;2023-04-24T06:44:47;97934.47;;;12.26;100.00
70027;BME280;57506;50.092;15.804;2023-04-24T06:47:12;97944.91;;;12.35;100.00
70027;BME280;57506;50.092;15.804;2023-04-24T06:49:41;97956.75;;;12.57;100.00
70027;BME280;57506;50.092;15.804;2023-04-24T06:52:07;97958.88;;;12.55;100.00
70027;BME280;57506;50.092;15.804;2023-04-24T06:54:33;97952.41;;;12.56;100.00
70027;BME280;57506;50.092;15.804;2023-04-24T06:56:59;97949.38;;;12.64;100.00
70027;BME280;57506;50.092;15.804;2023-04-24T06:59:26;97941.13;;;12.59;100.00
70027;BME280;57506;50.092;15.804;2023-04-24T07:01:52;97952.84;;;12.76;100.00
70027;BME280;57506;50.092;15.804;2023-04-24T07:04:18;97953.41;;;12.90;100.00
70027;BME280;57506;50.092;15.804;2023-04-24T07:06:47;97965.59;;;13.04;100.00
70027;BME280;57506;50.092;15.804;2023-04-24T07:09:13;97962.31;;;13.02;100.00
70027;BME280;57506;50.092;15.804;2023-04-24T07:11:39;97959.84;;;13.01;100.00
70027;BME280;57506;50.092;15.804;2023-04-24T07:14:06;97971.25;;;13.03;100.00
70027;BME280;57506;50.092;15.804;2023-04-24T07:16:32;97975.47;;;13.22;100.00
70027;BME280;57506;50.092;15.804;2023-04-24T07:18:57;97973.69;;;13.16;100.00
70027;BME280;57506;50.092;15.804;2023-04-24T07:21:23;97988.50;;;13.25;100.00
70027;BME280;57506;50.092;15.804;2023-04-24T07:23:49;97986.28;;;13.22;100.00
70027;BME280;57506;50.092;15.804;2023-04-24T07:26:15;97976.78;;;13.08;100.00
70027;BME280;57506;50.092;15.804;2023-04-24T07:28:40;97981.34;;;13.07;100.00
70027;BME280;57506;50.092;15.804;2023-04-24T07:31:07;97972.53;;;13.00;100.00
70027;BME280;57506;50.092;15.804;2023-04-24T07:33:33;97981.81;;;13.16;100.00
70027;BME280;57506;50.092;15.804;2023-04-24T07:35:59;97970.78;;;13.06;100.00
70027;BME280;57506;50.092;15.804;2023-04-24T07:38:25;97973.81;;;13.21;100.00
70027;BME280;57506;50.092;15.804;2023-04-24T07:40:51;97986.97;;;13.29;100.00
70027;BME280;57506;50.092;15.804;2023-04-24T07:43:19;97969.34;;;13.26;100.00
70027;BME280;57506;50.092;15.804;2023-04-24T07:45:45;97978.47;;;13.37;100.00
70027;BME280;57506;50.092;15.804;2023-04-24T07:48:11;97982.53;;;13.51;100.00
70027;BME280;57506;50.092;15.804;2023-04-24T07:50:38;97996.75;;;13.58;100.00
70027;BME280;57506;50.092;15.804;2023-04-24T07:53:04;97986.28;;;13.50;100.00
70027;BME280;57506;50.092;15.804;2023-04-24T07:55:30;98008.88;;;13.56;100.00
70027;BME280;57506;50.092;15.804;2023-04-24T07:57:55;98009.78;;;13.61;100.00
70027;BME280;57506;50.092;15.804;2023-04-24T08:00:21;98011.69;;;13.61;100.00
70027;BME280;57506;50.092;15.804;2023-04-24T08:02:46;98007.66;;;13.63;100.00
70027;BME280;57506;50.092;15.804;2023-04-24T08:05:12;98014.81;;;13.70;100.00
70027;BME280;57506;50.092;15.804;2023-04-24T08:07:38;98018.09;;;13.43;100.00
70027;BME280;57506;50.092;15.804;2023-04-24T08:10:04;98004.34;;;13.33;100.00
70027;BME280;57506;50.092;15.804;2023-04-24T08:12:30;98034.75;;;13.23;100.00
70027;BME280;57506;50.092;15.804;2023-04-24T08:14:56;98013.56;;;13.09;100.00
70027;BME280;57506;50.092;15.804;2023-04-24T08:17:22;98008.44;;;12.95;100.00
70027;BME280;57506;50.092;15.804;2023-04-24T08:19:47;98026.91;;;12.99;100.00
70027;BME280;57506;50.092;15.804;2023-04-24T08:22:14;98037.22;;;13.02;100.00
70027;BME280;57506;50.092;15.804;2023-04-24T08:24:40;98025.72;;;12.94;100.00
70027;BME280;57506;50.092;15.804;2023-04-24T08:27:06;98025.47;;;12.84;100.00
70027;BME280;57506;50.092;15.804;2023-04-24T08:29:32;98017.75;;;12.76;100.00
70027;BME280;57506;50.092;15.804;2023-04-24T08:31:57;98025.97;;;12.70;100.00
70027;BME280;57506;50.092;15.804;2023-04-24T08:34:23;98012.56;;;12.40;100.00
70027;BME280;57506;50.092;15.804;2023-04-24T08:36:48;98012.34;;;12.30;100.00
70027;BME280;57506;50.092;15.804;2023-04-24T08:39:15;97991.78;;;12.17;100.00
70027;BME280;57506;50.092;15.804;2023-04-24T08:41:43;97991.19;;;12.15;100.00
70027;BME280;57506;50.092;15.804;2023-04-24T08:44:11;98003.88;;;12.14;100.00
70027;BME280;57506;50.092;15.804;2023-04-24T08:46:39;97972.25;;;12.03;100.00
70027;BME280;57506;50.092;15.804;2023-04-24T08:49:06;97991.06;;;12.10;100.00
70027;BME280;57506;50.092;15.804;2023-04-24T08:51:31;98002.22;;;12.13;100.00
70027;BME280;57506;50.092;15.804;2023-04-24T08:53:57;98006.22;;;12.22;100.00
70027;BME280;57506;50.092;15.804;2023-04-24T08:56:23;97986.25;;;12.23;100.00
70027;BME280;57506;50.092;15.804;2023-04-24T08:58:53;98008.34;;;12.44;100.00
70027;BME280;57506;50.092;15.804;2023-04-24T09:01:20;97997.16;;;12.52;100.00
70027;BME280;57506;50.092;15.804;2023-04-24T09:03:48;97988.84;;;12.65;100.00
70027;BME280;57506;50.092;15.804;2023-04-24T09:06:16;98019.00;;;12.85;100.00
70027;BME280;57506;50.092;15.804;2023-04-24T09:08:43;98020.66;;;12.86;100.00
70027;BME280;57506;50.092;15.804;2023-04-24T09:11:11;98024.06;;;12.93;100.00
70027;BME280;57506;50.092;15.804;2023-04-24T09:13:37;98043.91;;;12.99;100.00
70027;BME280;57506;50.092;15.804;2023-04-24T09:16:03;98035.00;;;12.99;100.00
70027;BME280;57506;50.092;15.804;2023-04-24T09:18:29;98039.31;;;13.00;100.00
70027;BME280;57506;50.092;15.804;2023-04-24T09:21:03;98024.44;;;12.97;100.00
70027;BME280;57506;50.092;15.804;2023-04-24T09:23:29;98043.56;;;13.07;100.00
70027;BME280;57506;50.092;15.804;2023-04-24T09:25:56;98042.50;;;13.08;100.00
70027;BME280;57506;50.092;15.804;2023-04-24T09:28:26;98039.56;;;13.10;100.00
70027;BME280;57506;50.092;15.804;2023-04-24T09:33:36;98042.06;;;12.88;100.00
70027;BME280;57506;50.092;15.804;2023-04-24T09:36:02;98024.31;;;12.80;100.00
70027;BME280;57506;50.092;15.804;2023-04-24T09:38:38;98027.00;;;12.69;100.00
70027;BME280;57506;50.092;15.804;2023-04-24T09:41:08;98039.59;;;12.75;100.00
70027;BME280;57506;50.092;15.804;2023-04-24T09:43:38;98023.84;;;12.60;100.00
70027;BME280;57506;50.092;15.804;2023-04-24T09:46:07;98034.78;;;12.53;100.00
70027;BME280;57506;50.092;15.804;2023-04-24T09:48:37;98023.97;;;12.42;100.00
70027;BME280;57506;50.092;15.804;2023-04-24T09:51:05;98036.53;;;12.36;100.00
70027;BME280;57506;50.092;15.804;2023-04-24T09:53:36;98030.75;;;12.21;100.00
70027;BME280;57506;50.092;15.804;2023-04-24T09:56:10;98033.56;;;12.14;100.00
70027;BME280;57506;50.092;15.804;2023-04-24T09:58:37;98015.69;;;12.02;100.00
70027;BME280;57506;50.092;15.804;2023-04-24T10:01:03;98031.09;;;12.13;100.00
70027;BME280;57506;50.092;15.804;2023-04-24T10:03:33;98014.31;;;12.11;100.00
70027;BME280;57506;50.092;15.804;2023-04-24T10:06:03;98013.34;;;12.05;100.00
70027;BME280;57506;50.092;15.804;2023-04-24T10:08:35;98030.41;;;12.17;100.00
70027;BME280;57506;50.092;15.804;2023-04-24T10:11:01;98035.81;;;12.17;100.00
70027;BME280;57506;50.092;15.804;2023-04-24T10:13:27;98025.94;;;12.11;100.00
70027;BME280;57506;50.092;15.804;2023-04-24T10:15:53;98038.16;;;12.14;100.00
70027;BME280;57506;50.092;15.804;2023-04-24T10:18:20;98022.88;;;12.08;100.00
70027;BME280;57506;50.092;15.804;2023-04-24T10:20:47;98042.28;;;12.28;100.00
70027;BME280;57506;50.092;15.804;2023-04-24T10:23:14;98046.41;;;12.31;100.00
70027;BME280;57506;50.092;15.804;2023-04-24T10:25:40;98044.38;;;12.26;100.00
70027;BME280;57506;50.092;15.804;2023-04-24T10:28:06;98047.31;;;12.36;100.00
70027;BME280;57506;50.092;15.804;2023-04-24T10:30:33;98019.72;;;12.34;100.00
70027;BME280;57506;50.092;15.804;2023-04-24T10:33:04;98035.38;;;12.44;100.00
70027;BME280;57506;50.092;15.804;2023-04-24T10:35:39;98039.25;;;12.48;100.00
70027;BME280;57506;50.092;15.804;2023-04-24T10:38:18;98051.13;;;12.58;100.00
70027;BME280;57506;50.092;15.804;2023-04-24T10:40:47;98058.63;;;12.68;100.00
70027;BME280;57506;50.092;15.804;2023-04-24T10:43:16;98039.94;;;12.67;100.00
70027;BME280;57506;50.092;15.804;2023-04-24T10:46:03;98031.84;;;12.78;100.00
70027;BME280;57506;50.092;15.804;2023-04-24T10:48:30;98061.56;;;12.90;100.00
70027;BME280;57506;50.092;15.804;2023-04-24T10:50:56;98043.25;;;12.80;100.00
70027;BME280;57506;50.092;15.804;2023-04-24T10:53:23;98055.56;;;12.88;100.00
70027;BME280;57506;50.092;15.804;2023-04-24T10:55:50;98060.84;;;12.83;100.00
70027;BME280;57506;50.092;15.804;2023-04-24T10:58:21;98044.41;;;12.73;100.00
70027;BME280;57506;50.092;15.804;2023-04-24T11:00:58;98053.94;;;12.75;100.00
70027;BME280;57506;50.092;15.804;2023-04-24T11:03:32;98049.94;;;12.78;100.00
70027;BME280;57506;50.092;15.804;2023-04-24T11:06:07;98054.88;;;12.81;100.00
70027;BME280;57506;50.092;15.804;2023-04-24T11:11:17;98062.16;;;12.92;100.00
70027;BME280;57506;50.092;15.804;2023-04-24T11:21:59;98063.44;;;13.24;100.00
70027;BME280;57506;50.092;15.804;2023-04-24T11:24:32;98070.34;;;13.32;100.00
70027;BME280;57506;50.092;15.804;2023-04-24T11:27:09;98074.00;;;13.38;100.00
70027;BME280;57506;50.092;15.804;2023-04-24T11:29:49;98082.59;;;13.46;100.00
70027;BME280;57506;50.092;15.804;2023-04-24T11:35:17;98085.63;;;13.38;100.00
70027;BME280;57506;50.092;15.804;2023-04-24T11:37:46;98081.09;;;13.27;100.00
70027;BME280;57506;50.092;15.804;2023-04-24T11:40:13;98088.03;;;13.23;100.00
70027;BME280;57506;50.092;15.804;2023-04-24T11:42:42;98076.72;;;13.26;100.00
70027;BME280;57506;50.092;15.804;2023-04-24T11:45:22;98088.00;;;13.35;100.00
70027;BME280;57506;50.092;15.804;2023-04-24T11:47:48;98085.41;;;13.40;100.00
70027;BME280;57506;50.092;15.804;2023-04-24T11:50:15;98095.22;;;13.29;100.00
70027;BME280;57506;50.092;15.804;2023-04-24T11:52:43;98086.72;;;13.25;100.00
70027;BME280;57506;50.092;15.804;2023-04-24T11:57:44;98086.03;;;13.18;100.00
70027;BME280;57506;50.092;15.804;2023-04-24T12:00:21;98086.50;;;13.27;100.00
70027;BME280;57506;50.092;15.804;2023-04-24T12:02:47;98078.84;;;13.24;100.00
70027;BME280;57506;50.092;15.804;2023-04-24T12:05:24;98085.19;;;13.06;100.00
70027;BME280;57506;50.092;15.804;2023-04-24T12:07:52;98082.72;;;13.16;100.00
70027;BME280;57506;50.092;15.804;2023-04-24T12:10:22;98090.50;;;13.13;100.00
70027;BME280;57506;50.092;15.804;2023-04-24T12:12:49;98097.31;;;13.04;100.00
70027;BME280;57506;50.092;15.804;2023-04-24T12:15:17;98080.72;;;13.00;100.00
70027;BME280;57506;50.092;15.804;2023-04-24T12:17:44;98076.72;;;13.03;100.00
70027;BME280;57506;50.092;15.804;2023-04-24T12:20:10;98075.78;;;13.09;100.00
70027;BME280;57506;50.092;15.804;2023-04-24T12:22:50;98077.28;;;13.40;100.00
70027;BME280;57506;50.092;15.804;2023-04-24T12:25:17;98064.19;;;13.48;100.00
70027;BME280;57506;50.092;15.804;2023-04-24T12:27:51;98085.25;;;13.58;100.00
70027;BME280;57506;50.092;15.804;2023-04-24T12:30:17;98065.72;;;13.56;100.00
70027;BME280;57506;50.092;15.804;2023-04-24T12:32:45;98072.66;;;13.63;100.00
70027;BME280;57506;50.092;15.804;2023-04-24T12:35:11;98076.88;;;13.59;100.00
70027;BME280;57506;50.092;15.804;2023-04-24T12:37:37;98071.53;;;13.76;100.00
70027;BME280;57506;50.092;15.804;2023-04-24T12:40:09;98067.53;;;13.79;100.00
70027;BME280;57506;50.092;15.804;2023-04-24T12:42:41;98036.66;;;13.51;100.00
70027;BME280;57506;50.092;15.804;2023-04-24T12:45:07;98046.72;;;13.68;100.00
70027;BME280;57506;50.092;15.804;2023-04-24T12:47:34;98053.34;;;13.88;100.00
70027;BME280;57506;50.092;15.804;2023-04-24T12:50:00;98059.09;;;13.92;100.00
70027;BME280;57506;50.092;15.804;2023-04-24T12:52:28;98058.63;;;13.95;100.00
70027;BME280;57506;50.092;15.804;2023-04-24T12:54:59;98064.84;;;13.95;100.00
70027;BME280;57506;50.092;15.804;2023-04-24T12:57:26;98059.09;;;13.92;100.00